createdAt,value
2018-04-27T00:01:05.820Z,16.73
2018-04-27T00:03:34.005Z,16.70
2018-04-27T00:06:02.328Z,15.07
2018-04-27T00:08:30.429Z,15.70
2018-04-27T00:10:58.636Z,15.40
2018-04-27T00:13:26.867Z,17.37
2018-04-27T00:15:55.161Z,15.13
2018-04-27T00:18:23.579Z,18.67
2018-04-27T00:20:51.701Z,14.47
2018-04-27T00:23:20.070Z,15.77
2018-04-27T00:25:48.191Z,17.50
2018-04-27T00:28:16.375Z,16.07
2018-04-27T00:30:44.507Z,14.77
2018-04-27T00:33:12.621Z,15.97
2018-04-27T00:35:40.987Z,16.50
2018-04-27T00:38:09.416Z,16.77
2018-04-27T00:40:37.811Z,15.53
2018-04-27T00:43:06.176Z,16.07
2018-04-27T00:45:34.857Z,18.63
2018-04-27T00:48:03.108Z,17.67
2018-04-27T00:50:31.249Z,15.23
2018-04-27T00:53:11.239Z,15.80
2018-04-27T00:55:39.377Z,15.47
2018-04-27T00:58:07.820Z,14.97
2018-04-27T01:00:36.141Z,13.80
2018-04-27T01:03:04.384Z,16.40
2018-04-27T01:05:32.768Z,19.00
2018-04-27T01:08:00.960Z,18.93
2018-04-27T01:10:29.270Z,16.60
2018-04-27T01:12:57.368Z,19.97
2018-04-27T01:15:25.610Z,17.47
2018-04-27T01:17:53.898Z,17.50
2018-04-27T01:20:22.179Z,14.70
2018-04-27T01:22:50.309Z,19.13
2018-04-27T01:25:18.440Z,17.83
2018-04-27T01:27:46.999Z,18.43
2018-04-27T01:30:15.393Z,16.93
2018-04-27T01:32:43.492Z,16.30
2018-04-27T01:35:11.876Z,20.50
2018-04-27T01:37:40.057Z,18.13
2018-04-27T01:40:08.148Z,17.00
2018-04-27T01:42:36.319Z,17.03
2018-04-27T01:45:04.469Z,21.10
2018-04-27T01:47:32.810Z,17.83
2018-04-27T01:50:00.909Z,17.57
2018-04-27T01:52:29.402Z,19.50
2018-04-27T01:54:57.504Z,17.10
2018-04-27T01:57:25.644Z,23.93
2018-04-27T01:59:53.759Z,17.57
2018-04-27T02:02:21.893Z,20.53
2018-04-27T02:04:50.226Z,20.10
2018-04-27T02:07:18.370Z,17.30
2018-04-27T02:09:46.784Z,19.13
2018-04-27T02:12:15.154Z,19.20
2018-04-27T02:14:43.512Z,19.37
2018-04-27T02:17:11.927Z,21.60
2018-04-27T02:19:40.297Z,18.80
2018-04-27T02:22:08.406Z,22.27
2018-04-27T02:24:36.611Z,18.63
2018-04-27T02:27:04.758Z,19.23
2018-04-27T02:29:33.081Z,19.43
2018-04-27T02:32:01.508Z,20.53
2018-04-27T02:34:29.606Z,22.07
2018-04-27T02:36:57.919Z,23.10
2018-04-27T02:39:26.095Z,21.27
2018-04-27T02:41:54.254Z,25.07
2018-04-27T02:44:22.370Z,20.93
2018-04-27T02:46:50.572Z,20.67
2018-04-27T02:49:18.729Z,22.63
2018-04-27T02:51:46.839Z,23.07
2018-04-27T02:54:15.108Z,21.40
2018-04-27T02:56:43.496Z,21.90
2018-04-27T02:59:11.909Z,19.37
2018-04-27T03:01:40.030Z,23.80
2018-04-27T03:04:08.283Z,23.27
2018-04-27T03:06:36.658Z,20.83
2018-04-27T03:09:05.682Z,19.90
2018-04-27T03:11:34.031Z,20.40
2018-04-27T03:14:02.130Z,21.40
2018-04-27T03:16:30.460Z,19.43
2018-04-27T03:18:58.610Z,20.53
2018-04-27T03:21:26.986Z,20.73
2018-04-27T03:23:55.214Z,19.17
2018-04-27T03:26:23.428Z,22.50
2018-04-27T03:28:51.519Z,19.47
2018-04-27T03:31:19.742Z,20.73
2018-04-27T03:33:48.961Z,23.27
2018-04-27T03:36:17.048Z,18.13
2018-04-27T03:38:45.160Z,20.00
2018-04-27T03:41:13.247Z,21.00
2018-04-27T03:43:41.686Z,16.90
2018-04-27T03:46:09.960Z,19.53
2018-04-27T03:48:38.054Z,16.10
2018-04-27T03:51:06.200Z,18.27
2018-04-27T03:53:34.368Z,19.83
2018-04-27T03:56:02.756Z,17.47
2018-04-27T03:58:31.059Z,20.67
2018-04-27T04:01:11.111Z,18.33
2018-04-27T04:03:51.199Z,14.87
2018-04-27T04:06:19.735Z,20.93
2018-04-27T04:08:48.294Z,20.00
2018-04-27T04:11:17.197Z,20.30
2018-04-27T04:13:45.688Z,16.43
2018-04-27T04:16:14.421Z,16.83
2018-04-27T04:18:43.089Z,15.33
2018-04-27T04:21:11.819Z,18.57
2018-04-27T04:23:40.675Z,18.00
2018-04-27T04:26:08.950Z,18.13
2018-04-27T04:28:37.466Z,14.10
2018-04-27T04:31:05.877Z,14.97
2018-04-27T04:33:34.542Z,15.77
2018-04-27T04:36:03.407Z,20.37
2018-04-27T04:38:32.095Z,14.50
2018-04-27T04:41:00.880Z,17.07
2018-04-27T04:43:29.897Z,15.10
2018-04-27T04:45:58.540Z,15.37
2018-04-27T04:48:27.601Z,14.73
2018-04-27T04:50:56.110Z,17.23
2018-04-27T04:53:24.776Z,13.40
2018-04-27T04:55:53.320Z,19.10
2018-04-27T04:58:22.083Z,16.47
2018-04-27T05:00:50.990Z,20.70
2018-04-27T05:03:20.420Z,16.60
2018-04-27T05:05:48.957Z,16.20
2018-04-27T05:08:17.913Z,17.27
2018-04-27T05:10:46.365Z,15.63
2018-04-27T05:13:15.054Z,15.27
2018-04-27T05:15:43.607Z,18.33
2018-04-27T05:18:36.339Z,18.00
2018-04-27T05:21:05.194Z,15.13
2018-04-27T05:23:33.748Z,24.67
2018-04-27T05:26:03.163Z,17.27
2018-04-27T05:28:32.949Z,17.60
2018-04-27T05:31:13.851Z,16.83
2018-04-27T05:33:43.039Z,17.17
2018-04-27T05:36:12.029Z,18.40
2018-04-27T05:38:41.101Z,16.07
2018-04-27T05:41:13.592Z,17.13
2018-04-27T05:43:42.640Z,19.13
2018-04-27T05:46:11.258Z,17.10
2018-04-27T05:48:40.693Z,18.80
2018-04-27T05:51:09.850Z,23.93
2018-04-27T05:53:38.540Z,16.67
2018-04-27T05:56:07.311Z,19.57
2018-04-27T05:58:36.255Z,24.93
2018-04-27T06:01:04.966Z,18.37
2018-04-27T06:03:45.774Z,16.50
2018-04-27T06:06:14.729Z,14.30
2018-04-27T06:08:43.451Z,16.53
2018-04-27T06:11:12.065Z,14.43
2018-04-27T06:13:40.622Z,15.10
2018-04-27T06:16:09.248Z,15.37
2018-04-27T06:18:38.584Z,13.27
2018-04-27T06:21:07.475Z,14.77
2018-04-27T06:23:35.659Z,11.87
2018-04-27T06:26:04.649Z,12.00
2018-04-27T06:28:34.449Z,22.77
2018-04-27T06:31:03.197Z,13.73
2018-04-27T06:33:32.352Z,15.23
2018-04-27T06:36:01.248Z,14.90
2018-04-27T06:38:30.671Z,16.63
2018-04-27T06:40:59.580Z,16.83
2018-04-27T06:43:28.232Z,12.50
2018-04-27T06:46:00.441Z,14.90
2018-04-27T06:48:29.137Z,10.90
2018-04-27T06:50:57.802Z,13.77
2018-04-27T06:53:26.151Z,10.70
2018-04-27T06:55:55.196Z,11.63
2018-04-27T06:58:23.539Z,8.73
2018-04-27T07:00:52.458Z,12.50
2018-04-27T07:03:20.880Z,10.40
2018-04-27T07:05:49.729Z,11.27
2018-04-27T07:08:18.195Z,13.13
2018-04-27T07:10:47.129Z,12.67
2018-04-27T07:13:16.092Z,11.90
2018-04-27T07:15:44.631Z,12.00
2018-04-27T07:18:13.511Z,10.03
2018-04-27T07:20:42.100Z,10.57
2018-04-27T07:23:10.567Z,10.60
2018-04-27T07:25:39.633Z,14.77
2018-04-27T07:28:08.256Z,9.97
2018-04-27T07:30:37.098Z,15.63
2018-04-27T07:33:05.620Z,11.60
2018-04-27T07:35:34.575Z,13.17
2018-04-27T07:38:03.028Z,12.87
2018-04-27T07:40:31.461Z,9.13
2018-04-27T07:42:59.852Z,13.07
2018-04-27T07:45:28.290Z,11.83
2018-04-27T07:47:57.056Z,11.50
2018-04-27T07:50:25.471Z,11.63
2018-04-27T07:52:53.713Z,9.20
2018-04-27T07:55:22.345Z,11.77
2018-04-27T07:57:50.824Z,13.40
2018-04-27T08:00:19.580Z,10.53
2018-04-27T08:02:48.118Z,12.10
2018-04-27T08:05:16.416Z,11.00
2018-04-27T08:07:45.033Z,9.60
2018-04-27T08:10:13.540Z,13.90
2018-04-27T08:12:41.858Z,12.93
2018-04-27T08:15:10.696Z,9.97
2018-04-27T08:17:39.204Z,13.57
2018-04-27T08:20:08.193Z,13.53
2018-04-27T08:22:37.535Z,9.47
2018-04-27T08:25:05.856Z,17.53
2018-04-27T08:27:34.415Z,13.37
2018-04-27T08:30:02.766Z,14.17
2018-04-27T08:32:31.272Z,10.33
2018-04-27T08:34:59.964Z,18.17
2018-04-27T08:37:28.168Z,11.13
2018-04-27T08:39:56.493Z,13.93
2018-04-27T08:42:25.149Z,12.57
2018-04-27T08:44:53.425Z,10.60
2018-04-27T08:47:21.839Z,11.93
2018-04-27T08:49:50.209Z,11.10
2018-04-27T08:52:18.463Z,14.10
2018-04-27T08:54:46.864Z,13.87
2018-04-27T08:57:15.171Z,14.93
2018-04-27T08:59:43.468Z,8.53
2018-04-27T09:02:11.791Z,9.57
2018-04-27T09:04:40.171Z,10.50
2018-04-27T09:07:08.319Z,13.70
2018-04-27T09:09:36.643Z,10.83
2018-04-27T09:12:04.888Z,9.20
2018-04-27T09:14:33.284Z,11.73
2018-04-27T09:17:01.682Z,10.73
2018-04-27T09:19:29.961Z,10.90
2018-04-27T09:21:58.236Z,11.33
2018-04-27T09:24:26.469Z,10.30
2018-04-27T09:26:54.757Z,10.33
2018-04-27T09:29:23.161Z,6.63
2018-04-27T09:31:51.524Z,10.10
2018-04-27T09:34:19.818Z,12.03
2018-04-27T09:36:48.224Z,12.17
2018-04-27T09:39:16.547Z,11.10
2018-04-27T09:41:44.885Z,9.30
2018-04-27T09:44:13.322Z,9.87
2018-04-27T09:46:41.637Z,8.30
2018-04-27T09:49:10.027Z,13.57
2018-04-27T09:51:38.303Z,10.67
2018-04-27T09:54:06.580Z,10.63
2018-04-27T09:56:34.876Z,7.77
2018-04-27T09:59:03.208Z,8.87
2018-04-27T10:01:31.479Z,11.40
2018-04-27T10:03:59.722Z,9.27
2018-04-27T10:06:28.113Z,7.83
2018-04-27T10:08:56.376Z,11.43
2018-04-27T10:11:24.828Z,10.67
2018-04-27T10:13:53.111Z,9.63
2018-04-27T10:16:22.258Z,11.23
2018-04-27T10:18:50.666Z,9.10
2018-04-27T10:21:18.786Z,7.60
2018-04-27T10:23:47.103Z,8.97
2018-04-27T10:26:21.215Z,7.47
2018-04-27T10:28:49.777Z,6.17
2018-04-27T10:31:18.185Z,7.03
2018-04-27T10:33:46.542Z,7.93
2018-04-27T10:36:15.909Z,4.53
2018-04-27T10:38:44.122Z,7.83
2018-04-27T10:41:12.407Z,4.70
2018-04-27T10:43:40.690Z,6.37
2018-04-27T10:46:09.047Z,6.90
2018-04-27T10:48:37.391Z,6.40
2018-04-27T10:51:05.768Z,5.10
2018-04-27T10:53:34.164Z,7.73
2018-04-27T10:56:02.552Z,5.13
2018-04-27T10:58:30.747Z,3.93
2018-04-27T11:00:59.033Z,3.30
2018-04-27T11:03:27.343Z,5.13
2018-04-27T11:05:55.528Z,7.83
2018-04-27T11:08:23.872Z,5.20
2018-04-27T11:10:52.248Z,5.17
2018-04-27T11:13:20.831Z,5.27
2018-04-27T11:15:49.127Z,6.53
2018-04-27T11:18:17.510Z,4.93
2018-04-27T11:20:45.715Z,5.93
2018-04-27T11:23:13.936Z,5.37
2018-04-27T11:25:42.130Z,6.47
2018-04-27T11:28:10.394Z,7.30
2018-04-27T11:30:38.653Z,6.60
2018-04-27T11:33:07.050Z,6.43
2018-04-27T11:35:35.473Z,3.70
2018-04-27T11:38:03.878Z,3.83
2018-04-27T11:40:32.360Z,4.63
2018-04-27T11:43:00.674Z,6.10
2018-04-27T11:45:28.871Z,5.57
2018-04-27T11:47:57.188Z,3.40
2018-04-27T11:50:25.638Z,3.97
2018-04-27T11:52:53.931Z,4.43
2018-04-27T11:55:22.506Z,5.57
2018-04-27T11:57:50.793Z,3.93
2018-04-27T12:00:21.504Z,4.17
2018-04-27T12:02:49.840Z,3.43
2018-04-27T12:05:18.356Z,5.03
2018-04-27T12:07:46.725Z,5.07
2018-04-27T12:10:15.017Z,4.40
2018-04-27T12:12:43.457Z,6.17
2018-04-27T12:15:11.783Z,4.27
2018-04-27T12:17:40.023Z,2.57
2018-04-27T12:20:08.294Z,4.27
2018-04-27T12:22:36.506Z,3.67
2018-04-27T12:25:04.789Z,4.63
2018-04-27T12:27:33.249Z,4.83
2018-04-27T12:30:01.502Z,2.50
2018-04-27T12:32:29.725Z,5.43
2018-04-27T12:34:58.046Z,3.87
2018-04-27T12:37:26.242Z,4.50
2018-04-27T12:39:54.397Z,4.90
2018-04-27T12:42:22.785Z,2.57
2018-04-27T12:44:50.995Z,1.57
2018-04-27T12:47:19.378Z,3.90
2018-04-27T12:49:47.739Z,3.00
2018-04-27T12:52:15.878Z,3.93
2018-04-27T12:54:44.190Z,3.93
2018-04-27T12:57:12.429Z,5.43
2018-04-27T12:59:40.791Z,2.57
2018-04-27T13:02:09.109Z,3.33
2018-04-27T13:04:37.452Z,2.30
2018-04-27T13:07:05.730Z,1.37
2018-04-27T13:09:34.055Z,1.37
2018-04-27T13:12:02.339Z,3.07
2018-04-27T13:14:30.776Z,9.90
2018-04-27T13:16:59.373Z,2.13
2018-04-27T13:19:28.416Z,3.23
2018-04-27T13:21:56.582Z,4.67
2018-04-27T13:24:24.898Z,3.23
2018-04-27T13:26:53.247Z,4.93
2018-04-27T13:29:21.611Z,2.73
2018-04-27T13:31:50.048Z,3.63
2018-04-27T13:34:18.257Z,3.07
2018-04-27T13:36:46.770Z,3.47
2018-04-27T13:39:17.424Z,3.13
2018-04-27T13:41:45.972Z,5.00
2018-04-27T13:44:14.285Z,3.30
2018-04-27T13:46:42.643Z,4.73
2018-04-27T13:49:10.913Z,1.83
2018-04-27T13:51:39.758Z,2.27
2018-04-27T13:54:09.330Z,3.37
2018-04-27T13:56:38.249Z,4.47
2018-04-27T13:59:06.597Z,3.90
2018-04-27T14:01:34.917Z,2.83
2018-04-27T14:04:03.271Z,3.00
2018-04-27T14:06:31.806Z,3.60
2018-04-27T14:09:00.119Z,2.53
2018-04-27T14:11:28.336Z,3.53
2018-04-27T14:13:57.313Z,3.67
2018-04-27T14:16:25.743Z,4.20
2018-04-27T14:18:53.992Z,2.90
2018-04-27T14:21:22.355Z,2.77
2018-04-27T14:23:50.786Z,2.83
2018-04-27T14:26:19.178Z,4.97
2018-04-27T14:28:48.031Z,5.50
2018-04-27T14:31:16.855Z,5.73
2018-04-27T14:33:45.520Z,5.20
2018-04-27T14:36:14.322Z,4.80
2018-04-27T14:38:43.143Z,2.67
2018-04-27T14:41:11.534Z,1.97
2018-04-27T14:43:40.220Z,7.07
2018-04-27T14:46:08.411Z,3.60
2018-04-27T14:48:36.801Z,1.50
2018-04-27T14:51:05.544Z,5.13
2018-04-27T14:53:33.813Z,5.77
2018-04-27T14:56:02.230Z,7.27
2018-04-27T14:58:30.624Z,4.53
2018-04-27T15:00:59.007Z,3.53
2018-04-27T15:03:27.320Z,5.60
2018-04-27T15:05:55.766Z,3.53
2018-04-27T15:08:24.004Z,2.23
2018-04-27T15:10:52.374Z,3.50
2018-04-27T15:13:20.823Z,3.10
2018-04-27T15:15:49.193Z,6.97
2018-04-27T15:18:17.780Z,5.77
2018-04-27T15:20:46.146Z,6.10
2018-04-27T15:23:14.711Z,7.00
2018-04-27T15:25:43.090Z,5.43
2018-04-27T15:28:11.360Z,5.77
2018-04-27T15:30:39.907Z,7.37
2018-04-27T15:33:08.515Z,4.97
2018-04-27T15:35:36.908Z,4.83
2018-04-27T15:38:08.545Z,5.50
2018-04-27T15:40:37.343Z,6.23
2018-04-27T15:43:05.776Z,4.90
2018-04-27T15:45:34.112Z,5.87
2018-04-27T15:48:02.534Z,4.43
2018-04-27T15:50:30.893Z,3.87
2018-04-27T15:52:59.406Z,3.10
2018-04-27T15:55:28.224Z,3.80
2018-04-27T15:57:56.425Z,4.53
2018-04-27T16:00:25.069Z,3.90
2018-04-27T16:02:53.625Z,5.30
2018-04-27T16:05:22.229Z,4.63
2018-04-27T16:07:50.753Z,3.40
2018-04-27T16:10:19.245Z,4.23
2018-04-27T16:12:47.542Z,4.57
2018-04-27T16:15:16.162Z,4.63
2018-04-27T16:17:45.413Z,4.17
2018-04-27T16:20:13.707Z,7.67
2018-04-27T16:22:42.292Z,3.13
2018-04-27T16:25:11.203Z,4.37
2018-04-27T16:27:39.825Z,2.60
2018-04-27T16:30:09.878Z,5.63
2018-04-27T16:32:38.426Z,3.87
2018-04-27T16:35:07.144Z,4.40
2018-04-27T16:37:35.622Z,3.10
2018-04-27T16:40:03.878Z,6.47
2018-04-27T16:42:32.418Z,5.23
2018-04-27T16:45:00.872Z,5.57
2018-04-27T16:47:29.270Z,5.50
2018-04-27T16:49:57.660Z,4.37
2018-04-27T16:52:26.218Z,4.77
2018-04-27T16:54:54.568Z,4.37
2018-04-27T16:57:24.204Z,3.23
2018-04-27T16:59:52.592Z,3.10
2018-04-27T17:02:21.502Z,5.27
2018-04-27T17:04:50.958Z,4.03
2018-04-27T17:07:19.266Z,4.67
2018-04-27T17:09:48.349Z,5.97
2018-04-27T17:12:16.845Z,7.37
2018-04-27T17:14:45.417Z,6.73
2018-04-27T17:17:14.070Z,4.30
2018-04-27T17:19:43.345Z,6.53
2018-04-27T17:22:12.228Z,4.30
2018-04-27T17:24:40.812Z,3.80
2018-04-27T17:27:09.275Z,3.07
2018-04-27T17:29:37.682Z,6.43
2018-04-27T17:32:06.331Z,5.07
2018-04-27T17:34:36.292Z,7.00
2018-04-27T17:37:05.490Z,4.57
2018-04-27T17:39:33.976Z,10.20
2018-04-27T17:42:03.446Z,4.97
2018-04-27T17:44:32.297Z,5.10
2018-04-27T17:47:01.189Z,6.30
2018-04-27T17:49:30.521Z,4.30
2018-04-27T17:51:58.739Z,6.13
2018-04-27T17:54:27.053Z,4.20
2018-04-27T17:56:56.267Z,5.57
2018-04-27T17:59:25.348Z,5.50
2018-04-27T18:01:53.987Z,6.30
2018-04-27T18:04:23.876Z,7.47
2018-04-27T18:06:52.625Z,3.53
2018-04-27T18:09:21.314Z,8.20
2018-04-27T18:11:55.795Z,4.10
2018-04-27T18:14:25.998Z,5.30
2018-04-27T18:16:55.246Z,4.53
2018-04-27T18:19:23.995Z,4.47
2018-04-27T18:21:53.582Z,4.57
2018-04-27T18:24:22.818Z,6.03
2018-04-27T18:26:51.366Z,5.60
2018-04-27T18:29:20.031Z,6.27
2018-04-27T18:31:48.650Z,5.70
2018-04-27T18:34:17.619Z,6.57
2018-04-27T18:36:46.280Z,4.43
2018-04-27T18:39:15.053Z,9.10
2018-04-27T18:41:43.488Z,4.83
2018-04-27T18:44:12.370Z,8.47
2018-04-27T18:46:41.018Z,7.10
2018-04-27T18:49:09.252Z,4.80
2018-04-27T18:51:37.374Z,5.67
2018-04-27T18:54:05.507Z,6.40
2018-04-27T18:56:33.825Z,7.47
2018-04-27T18:59:01.947Z,7.30
2018-04-27T19:01:30.278Z,7.40
2018-04-27T19:03:58.669Z,7.00
2018-04-27T19:06:26.791Z,14.67
2018-04-27T19:08:54.970Z,20.83
2018-04-27T19:11:23.185Z,18.47
2018-04-27T19:13:51.266Z,9.00
2018-04-27T19:16:19.334Z,10.50
2018-04-27T19:18:47.560Z,15.57
2018-04-27T19:21:19.668Z,13.47
2018-04-27T19:23:47.771Z,12.07
2018-04-27T19:26:17.237Z,11.43
2018-04-27T19:28:45.501Z,15.53
2018-04-27T19:31:13.590Z,35.00
2018-04-27T19:33:41.713Z,76.03
2018-04-27T19:36:10.115Z,48.20
2018-04-27T19:38:38.228Z,46.10
2018-04-27T19:41:06.315Z,21.67
2018-04-27T19:43:34.564Z,16.77
2018-04-27T19:46:02.655Z,16.47
2018-04-27T19:48:31.041Z,7.83
2018-04-27T19:50:59.385Z,10.37
2018-04-27T19:53:27.555Z,12.30
2018-04-27T19:55:55.841Z,7.73
2018-04-27T19:58:23.911Z,5.90
2018-04-27T20:00:51.992Z,11.70
2018-04-27T20:03:20.369Z,5.07
2018-04-27T20:05:48.474Z,4.60
2018-04-27T20:08:25.750Z,4.70
2018-04-27T20:10:54.215Z,5.13
2018-04-27T20:13:22.215Z,6.23
2018-04-27T20:15:52.171Z,5.50
2018-04-27T20:18:21.008Z,7.20
2018-04-27T20:20:49.142Z,6.47
2018-04-27T20:23:19.154Z,11.80
2018-04-27T20:25:47.436Z,7.90
2018-04-27T20:28:15.506Z,8.67
2018-04-27T20:30:43.593Z,6.70
2018-04-27T20:33:12.673Z,10.77
2018-04-27T20:35:40.920Z,10.43
2018-04-27T20:38:19.429Z,10.00
2018-04-27T20:40:47.536Z,9.93
2018-04-27T20:43:16.535Z,9.50
2018-04-27T20:45:44.699Z,9.40
2018-04-27T20:48:15.494Z,10.30
2018-04-27T20:51:06.278Z,9.57
2018-04-27T20:53:53.919Z,5.77
2018-04-27T20:56:38.603Z,9.40
2018-04-27T20:59:06.735Z,10.47
2018-04-27T21:01:35.346Z,8.20
2018-04-27T21:04:03.458Z,6.90
2018-04-27T21:06:31.561Z,8.13
2018-04-27T21:08:59.995Z,8.67
2018-04-27T21:11:33.215Z,9.13
2018-04-27T21:14:01.614Z,8.83
2018-04-27T21:16:29.981Z,10.50
2018-04-27T21:18:58.358Z,6.83
2018-04-27T21:21:26.461Z,7.70
2018-04-27T21:23:54.569Z,6.90
2018-04-27T21:26:23.475Z,6.83
2018-04-27T21:28:51.598Z,10.27
2018-04-27T21:31:19.703Z,9.47
2018-04-27T21:33:51.394Z,6.87
2018-04-27T21:36:19.573Z,8.13
2018-04-27T21:39:02.592Z,8.50
2018-04-27T21:44:28.076Z,9.23
2018-04-27T21:47:19.743Z,11.17
2018-04-27T21:49:49.679Z,11.63
2018-04-27T21:52:20.755Z,9.27
2018-04-27T21:54:48.868Z,13.07
2018-04-27T21:57:21.733Z,6.80
2018-04-27T21:59:50.620Z,10.00
2018-04-27T22:02:38.345Z,7.90
2018-04-27T22:05:12.047Z,9.07
2018-04-27T22:07:41.046Z,15.07
2018-04-27T22:10:09.146Z,8.70
2018-04-27T22:12:38.037Z,9.57
2018-04-27T22:15:06.188Z,9.80
2018-04-27T22:17:34.253Z,12.77
2018-04-27T22:20:03.276Z,9.70
2018-04-27T22:22:31.627Z,7.77
2018-04-27T22:25:15.663Z,12.17
2018-04-27T22:27:45.273Z,7.33
2018-04-27T22:33:33.459Z,10.57
2018-04-27T22:39:34.980Z,11.20
2018-04-27T22:42:19.044Z,7.77
2018-04-27T22:44:54.821Z,9.83
2018-04-27T22:47:43.662Z,6.93
2018-04-27T22:50:11.755Z,8.33
2018-04-27T22:52:41.031Z,8.97
2018-04-27T22:55:12.588Z,8.40
2018-04-27T23:01:03.923Z,10.17
2018-04-27T23:03:35.076Z,10.93
2018-04-27T23:06:03.433Z,9.57
2018-04-27T23:08:31.815Z,8.07
2018-04-27T23:11:18.290Z,11.90
2018-04-27T23:13:47.309Z,11.23
2018-04-27T23:16:17.772Z,10.50
2018-04-27T23:18:46.749Z,10.13
2018-04-27T23:21:18.525Z,9.00
2018-04-27T23:23:46.741Z,9.67
2018-04-27T23:26:14.820Z,8.57
2018-04-27T23:28:42.931Z,9.13
2018-04-27T23:31:11.008Z,9.07
2018-04-27T23:33:39.245Z,8.47
2018-04-27T23:36:07.322Z,7.20
2018-04-27T23:38:35.460Z,9.43
2018-04-27T23:41:03.874Z,10.43
2018-04-27T23:43:31.946Z,8.17
2018-04-27T23:46:00.234Z,8.43
2018-04-27T23:48:28.605Z,7.90
2018-04-27T23:50:57.612Z,11.50
2018-04-27T23:53:25.687Z,7.70
2018-04-27T23:55:53.788Z,8.40
2018-04-27T23:58:31.422Z,10.43
